Harrodsburg, Indiana
Current Conditions -  °F | °C
As of 4:46 AM on Saturday 20 Dec 2014 (Local Time) from KBMG Reporting Station
Light Snow Light Snow  
Wind Chill: 29°   Ceiling: 600
Heat Index: 29°   Visibility: 2mi
Dew Point: 27°   Wind: 0mph
Humidity: 92%   Direction: NA
Pressure: 30.26"   Gusts: NA
Location:  39.01°N, 86.54°W
Report Text: KBMG 200946Z 00000KT 2SM -SN BR BKN006 BKN020 OVC042 M02/M03 A3026 RMK AO2 P0001 T10171028
Loading
Personal Weather Stations






























Interactive Weather Map New forecast layout! Learn more

10-Day Weather Forecast

Advertisements
Track Severe Weather on mobile